Time;durP1;ratioP1;P1;durP2;ratioP2;P2;SDS_P1;SDS_P2;PMS_P1;PMS_P2;Temp;Humidity;BMP_temperature;BMP_pressure;BME280_temperature;BME280_humidity;BME280_pressure;Samples;Min_cycle;Max_cycle;Signal;HPM_P1;HPM_P2
2021/12/13 00:01:26;;;;;;;1999.90;999.90;;;10.50;99.90;;;;;;4933709;29;20430;-70
2021/12/13 00:04:01;;;;;;;1999.90;999.90;;;10.50;99.90;;;;;;4933395;29;20413;-70
2021/12/13 00:06:34;;;;;;;1999.90;999.90;;;10.50;99.90;;;;;;4933679;29;20412;-70
2021/12/13 00:09:05;;;;;;;1999.90;999.90;;;10.40;99.90;;;;;;4934256;29;20413;-70
2021/12/13 00:11:38;;;;;;;1999.90;999.90;;;10.40;99.90;;;;;;4933869;29;20442;-70
2021/12/13 00:14:11;;;;;;;1999.90;999.90;;;10.40;99.90;;;;;;4933989;29;20471;-69
2021/12/13 00:16:41;;;;;;;1999.90;999.90;;;10.40;99.90;;;;;;4933854;28;20828;-69
2021/12/13 00:19:14;;;;;;;1999.90;999.90;;;10.40;99.90;;;;;;4933687;29;20401;-69
2021/12/13 00:21:47;;;;;;;1999.90;999.90;;;10.40;99.90;;;;;;4934474;28;20908;-70
2021/12/13 00:24:28;;;;;;;1999.90;999.90;;;10.50;99.90;;;;;;4933665;28;20420;-69
2021/12/13 00:27:05;;;;;;;1999.90;999.90;;;10.40;99.90;;;;;;4933590;29;20425;-69
2021/12/13 00:30:01;;;;;;;1999.90;999.90;;;10.40;99.90;;;;;;4933601;29;20428;-69
2021/12/13 00:33:07;;;;;;;1999.90;999.90;;;10.50;99.90;;;;;;4933460;29;20415;-71
2021/12/13 00:36:10;;;;;;;1999.90;999.90;;;10.50;99.90;;;;;;4933307;28;20437;-69
2021/12/13 00:38:48;;;;;;;1999.90;999.90;;;10.40;99.90;;;;;;4933540;29;20406;-69
2021/12/13 00:41:22;;;;;;;1999.90;999.90;;;10.40;99.90;;;;;;4933476;29;20423;-69
2021/12/13 00:43:53;;;;;;;1999.90;999.90;;;10.50;99.90;;;;;;4933756;29;20411;-69
2021/12/13 00:46:21;;;;;;;1999.90;999.90;;;10.50;99.90;;;;;;4933090;28;20404;-69
2021/12/13 00:48:52;;;;;;;1999.90;999.90;;;10.50;99.90;;;;;;4933459;29;20847;-69
2021/12/13 00:51:27;;;;;;;1999.90;999.90;;;10.50;99.90;;;;;;4933750;29;20548;-71
2021/12/13 00:53:56;;;;;;;1999.90;999.90;;;10.50;99.90;;;;;;4933437;29;20457;-69
2021/12/13 00:57:01;;;;;;;1999.90;999.90;;;10.60;99.90;;;;;;4933375;29;20423;-71
2021/12/13 00:59:39;;;;;;;1999.90;999.90;;;10.50;99.90;;;;;;4943020;28;20820;-70
2021/12/13 01:02:13;;;;;;;1999.90;999.90;;;10.40;99.90;;;;;;4948153;28;20510;-71
2021/12/13 01:04:47;;;;;;;1999.90;999.90;;;10.30;99.90;;;;;;4933294;29;20420;-70
2021/12/13 01:07:34;;;;;;;1999.90;999.90;;;10.30;99.90;;;;;;4933580;29;20543;-69
2021/12/13 01:10:18;;;;;;;1999.90;999.90;;;10.30;99.90;;;;;;4933282;29;20788;-71
2021/12/13 01:12:47;;;;;;;1999.90;999.90;;;10.30;99.90;;;;;;4932905;28;20410;-70
2021/12/13 01:15:35;;;;;;;1999.90;999.90;;;10.40;99.90;;;;;;4931569;29;20417;-70
2021/12/13 01:18:55;;;;;;;1999.90;999.90;;;10.40;99.90;;;;;;4933034;29;20421;-70
2021/12/13 01:21:40;;;;;;;1999.90;999.90;;;10.40;99.90;;;;;;4932638;29;20438;-70
2021/12/13 01:24:11;;;;;;;1999.90;999.90;;;10.50;99.90;;;;;;4932142;28;21046;-70
2021/12/13 01:26:42;;;;;;;1999.90;999.90;;;10.40;99.90;;;;;;4932367;29;20822;-70
2021/12/13 01:29:08;;;;;;;1999.90;999.90;;;10.40;99.90;;;;;;4932679;28;20422;-70
2021/12/13 01:31:40;;;;;;;1999.90;999.90;;;10.40;99.90;;;;;;4932357;29;20958;-70
2021/12/13 01:34:07;;;;;;;1999.90;999.90;;;10.50;99.90;;;;;;4932023;29;20238;-70
2021/12/13 01:36:49;;;;;;;1999.90;999.90;;;10.60;99.90;;;;;;4932331;29;20909;-70
2021/12/13 01:39:22;;;;;;;1999.90;999.90;;;10.60;99.90;;;;;;4932379;29;20410;-70
2021/12/13 01:42:18;;;;;;;1999.90;999.90;;;10.60;99.90;;;;;;4932283;29;20438;-70
2021/12/13 01:44:49;;;;;;;1999.90;999.90;;;10.50;99.90;;;;;;4944354;28;21006;-70
2021/12/13 01:47:37;;;;;;;1999.90;999.90;;;10.40;99.90;;;;;;4932305;28;20466;-70
2021/12/13 01:50:17;;;;;;;1999.90;999.90;;;10.50;99.90;;;;;;4932007;29;21124;-70
2021/12/13 01:52:45;;;;;;;1999.90;999.90;;;10.40;99.90;;;;;;4931957;28;20464;-70
2021/12/13 01:55:23;;;;;;;1999.90;999.90;;;10.40;99.90;;;;;;4931814;29;20525;-70
2021/12/13 01:57:56;;;;;;;1999.90;999.90;;;10.40;99.90;;;;;;4932066;29;20406;-70
2021/12/13 02:00:43;;;;;;;1999.90;999.90;;;10.40;99.90;;;;;;4932204;28;20436;-70
2021/12/13 02:03:10;;;;;;;1999.90;999.90;;;10.40;99.90;;;;;;4932139;29;20430;-70
2021/12/13 02:05:35;;;;;;;1999.90;999.90;;;10.30;99.90;;;;;;4931671;29;20423;-70
2021/12/13 02:08:09;;;;;;;1999.90;999.90;;;10.30;99.90;;;;;;4931877;29;20440;-70
2021/12/13 02:10:41;;;;;;;1999.90;999.90;;;10.40;99.90;;;;;;4931822;29;20229;-70
2021/12/13 02:13:22;;;;;;;1999.90;999.90;;;10.40;99.90;;;;;;4931805;28;20480;-70
2021/12/13 02:18:38;;;;;;;1999.90;999.90;;;10.40;99.90;;;;;;4932061;29;20922;-70
2021/12/13 02:21:11;;;;;;;1999.90;999.90;;;10.40;99.90;;;;;;4931653;29;20431;-70
2021/12/13 02:23:43;;;;;;;1999.90;999.90;;;10.40;99.90;;;;;;4931784;29;20496;-70
2021/12/13 02:26:10;;;;;;;1999.90;999.90;;;10.40;99.90;;;;;;4932710;29;20426;-70
2021/12/13 02:28:39;;;;;;;1999.90;999.90;;;10.40;99.90;;;;;;4935081;29;20500;-70
2021/12/13 02:31:06;;;;;;;1999.90;999.90;;;10.40;99.90;;;;;;4935047;29;20430;-70
2021/12/13 02:33:40;;;;;;;1999.90;999.90;;;10.30;99.90;;;;;;4935118;29;20451;-71
2021/12/13 02:36:08;;;;;;;1999.90;999.90;;;10.30;99.90;;;;;;4935261;29;20418;-71
2021/12/13 02:38:36;;;;;;;1999.90;999.90;;;10.40;99.90;;;;;;4935245;29;20416;-71
2021/12/13 02:41:04;;;;;;;1999.90;999.90;;;10.40;99.90;;;;;;4935433;29;20472;-71
2021/12/13 02:43:34;;;;;;;1999.90;999.90;;;10.40;99.90;;;;;;4934873;29;20413;-70
2021/12/13 02:46:00;;;;;;;1999.90;999.90;;;10.40;99.90;;;;;;4934530;29;20410;-70
2021/12/13 02:48:28;;;;;;;1999.90;999.90;;;10.40;99.90;;;;;;4934967;28;20520;-70
2021/12/13 02:51:03;;;;;;;1999.90;999.90;;;10.30;99.90;;;;;;4934672;29;20445;-70
2021/12/13 02:54:10;;;;;;;1999.90;999.90;;;10.20;99.90;;;;;;4934635;29;20456;-70
2021/12/13 02:56:42;;;;;;;1999.90;999.90;;;10.20;99.90;;;;;;4942148;28;20456;-70
2021/12/13 02:59:09;;;;;;;1999.90;999.90;;;10.30;99.90;;;;;;4934774;29;20791;-70
2021/12/13 03:01:47;;;;;;;1999.90;999.90;;;10.30;99.90;;;;;;4934905;29;20434;-70
2021/12/13 03:04:18;;;;;;;1999.90;999.90;;;10.30;99.90;;;;;;4935553;29;20524;-70
2021/12/13 03:06:49;;;;;;;1999.90;999.90;;;10.30;99.90;;;;;;4935630;28;20470;-71
2021/12/13 03:09:21;;;;;;;1999.90;999.90;;;10.30;99.90;;;;;;4935995;28;20821;-71
2021/12/13 03:11:50;;;;;;;1999.90;999.90;;;10.30;99.90;;;;;;4935976;28;20769;-71
2021/12/13 03:14:20;;;;;;;1999.90;999.90;;;10.30;99.90;;;;;;4935477;29;20493;-71
2021/12/13 03:17:13;;;;;;;1999.90;999.90;;;10.30;99.90;;;;;;4935743;29;20402;-71
2021/12/13 03:19:41;;;;;;;1999.90;999.90;;;10.30;99.90;;;;;;4941341;28;20469;-71
2021/12/13 03:22:44;;;;;;;1999.90;999.90;;;10.30;99.90;;;;;;4935191;29;20503;-71
2021/12/13 03:25:45;;;;;;;1999.90;999.90;;;10.40;99.90;;;;;;4935123;29;20916;-70
2021/12/13 03:28:19;;;;;;;1999.90;999.90;;;10.50;99.90;;;;;;4935127;29;20443;-70
2021/12/13 03:30:59;;;;;;;1999.90;999.90;;;10.50;99.90;;;;;;4934868;29;20426;-71
2021/12/13 03:33:34;;;;;;;1999.90;999.90;;;10.50;99.90;;;;;;4934907;29;21020;-70
2021/12/13 03:36:05;;;;;;;1999.90;999.90;;;10.40;99.90;;;;;;4934591;29;20429;-71
2021/12/13 03:38:41;;;;;;;1999.90;999.90;;;10.50;99.90;;;;;;4934502;29;20399;-71
2021/12/13 03:41:13;;;;;;;1999.90;999.90;;;10.50;99.90;;;;;;4934736;29;20438;-71
2021/12/13 03:43:56;;;;;;;1999.90;999.90;;;10.50;99.90;;;;;;4934903;29;20419;-70
2021/12/13 03:46:25;;;;;;;1999.90;999.90;;;10.50;99.90;;;;;;4934474;29;20414;-71
2021/12/13 03:48:53;;;;;;;1999.90;999.90;;;10.50;99.90;;;;;;4934748;29;20427;-71
2021/12/13 03:51:25;;;;;;;1999.90;999.90;;;10.40;99.90;;;;;;4934552;29;20548;-71
2021/12/13 03:53:54;;;;;;;1999.90;999.90;;;10.50;99.90;;;;;;4949033;29;20972;-71
2021/12/13 03:56:24;;;;;;;1999.90;999.90;;;10.50;99.90;;;;;;4934305;29;20441;-70
2021/12/13 03:58:55;;;;;;;1999.90;999.90;;;10.40;99.90;;;;;;4934502;28;20419;-71
2021/12/13 04:01:45;;;;;;;1999.90;999.90;;;10.40;99.90;;;;;;4934669;29;20483;-71
2021/12/13 04:04:37;;;;;;;1999.90;999.90;;;10.40;99.90;;;;;;4940584;28;20430;-71
2021/12/13 04:07:15;;;;;;;1999.90;999.90;;;10.40;99.90;;;;;;4934466;28;20940;-71
2021/12/13 04:09:43;;;;;;;1999.90;999.90;;;10.40;99.90;;;;;;4934442;29;20838;-71
2021/12/13 04:12:11;;;;;;;1999.90;999.90;;;10.40;99.90;;;;;;4934291;29;20430;-71
2021/12/13 04:14:44;;;;;;;1999.90;999.90;;;10.40;99.90;;;;;;4933754;28;20492;-71
2021/12/13 04:17:23;;;;;;;1999.90;999.90;;;10.60;99.90;;;;;;4933868;29;20409;-71
2021/12/13 04:19:56;;;;;;;1999.90;999.90;;;10.50;99.90;;;;;;4934130;29;20406;-71
2021/12/13 04:22:27;;;;;;;1999.90;999.90;;;10.50;99.90;;;;;;4933969;29;20452;-71
2021/12/13 04:24:57;;;;;;;1999.90;999.90;;;10.50;99.90;;;;;;4933748;29;20423;-71
2021/12/13 04:27:48;;;;;;;1999.90;999.90;;;10.50;99.90;;;;;;4933872;29;20417;-71
2021/12/13 04:30:23;;;;;;;1999.90;999.90;;;10.40;99.90;;;;;;4940566;28;20477;-71
2021/12/13 04:32:56;;;;;;;1999.90;999.90;;;10.50;99.90;;;;;;4933977;29;20920;-71
2021/12/13 04:35:24;;;;;;;1999.90;999.90;;;10.50;99.90;;;;;;4933673;29;20768;-71
2021/12/13 04:37:54;;;;;;;1999.90;999.90;;;10.60;99.90;;;;;;4934194;29;20410;-71
2021/12/13 04:40:32;;;;;;;1999.90;999.90;;;10.60;99.90;;;;;;4933750;29;20988;-70
2021/12/13 04:43:05;;;;;;;1999.90;999.90;;;10.60;99.90;;;;;;4934107;29;20421;-71
2021/12/13 04:45:31;;;;;;;1999.90;999.90;;;10.60;99.90;;;;;;4933331;29;20422;-70
2021/12/13 04:48:11;;;;;;;1999.90;999.90;;;10.60;99.90;;;;;;4948648;28;20434;-71
2021/12/13 04:51:08;;;;;;;1999.90;999.90;;;10.60;99.90;;;;;;4932583;29;20465;-69
2021/12/13 04:53:37;;;;;;;1999.90;999.90;;;10.60;99.90;;;;;;4933965;29;20884;-71
2021/12/13 04:56:08;;;;;;;1999.90;999.90;;;10.70;99.90;;;;;;4933213;29;20410;-71
2021/12/13 04:58:34;;;;;;;1999.90;999.90;;;10.60;99.90;;;;;;4933457;29;20403;-71
2021/12/13 05:01:03;;;;;;;1999.90;999.90;;;10.70;99.90;;;;;;4933498;29;20431;-71
2021/12/13 05:03:33;;;;;;;1999.90;999.90;;;10.60;99.90;;;;;;4933325;29;20425;-71
2021/12/13 05:06:04;;;;;;;1999.90;999.90;;;10.60;99.90;;;;;;4932622;29;20414;-71
2021/12/13 05:08:31;;;;;;;1999.90;999.90;;;10.70;99.90;;;;;;4932740;29;20426;-71
2021/12/13 05:11:03;;;;;;;1999.90;999.90;;;10.70;99.90;;;;;;4932605;29;20472;-71
2021/12/13 05:13:29;;;;;;;1999.90;999.90;;;10.60;99.90;;;;;;4932677;29;20718;-71
2021/12/13 05:16:01;;;;;;;1999.90;999.90;;;10.50;99.90;;;;;;4932414;29;20415;-71
2021/12/13 05:18:31;;;;;;;1999.90;999.90;;;10.40;99.90;;;;;;4932567;29;20402;-71
2021/12/13 05:21:03;;;;;;;1999.90;999.90;;;10.40;99.90;;;;;;4932527;29;20420;-71
2021/12/13 05:23:30;;;;;;;1999.90;999.90;;;10.40;99.90;;;;;;4933121;28;20463;-69
2021/12/13 05:26:01;;;;;;;1999.90;999.90;;;10.40;99.90;;;;;;4933138;29;20416;-69
2021/12/13 05:28:44;;;;;;;1999.90;999.90;;;10.40;99.90;;;;;;4933629;29;20967;-69
2021/12/13 05:31:17;;;;;;;1999.90;999.90;;;10.40;99.90;;;;;;4932725;28;20436;-71
2021/12/13 05:33:45;;;;;;;1999.90;999.90;;;10.40;99.90;;;;;;4932330;29;20461;-71
2021/12/13 05:36:23;;;;;;;1999.90;999.90;;;10.40;99.90;;;;;;4932182;28;20402;-70
2021/12/13 05:38:58;;;;;;;1999.90;999.90;;;10.40;99.90;;;;;;4932327;28;20415;-71
2021/12/13 05:41:27;;;;;;;1999.90;999.90;;;10.30;99.90;;;;;;4932452;28;20418;-71
2021/12/13 05:43:57;;;;;;;1999.90;999.90;;;10.40;99.90;;;;;;4932230;29;20420;-70
2021/12/13 05:46:44;;;;;;;1999.90;999.90;;;10.50;99.90;;;;;;4932030;29;20801;-70
2021/12/13 05:49:25;;;;;;;1999.90;999.90;;;10.40;99.90;;;;;;4933059;28;20839;-70
2021/12/13 05:51:56;;;;;;;1999.90;999.90;;;10.50;99.90;;;;;;4932887;29;20456;-71
2021/12/13 05:54:21;;;;;;;1999.90;999.90;;;10.40;99.90;;;;;;4933079;29;20457;-71
2021/12/13 05:57:12;;;;;;;1999.90;999.90;;;10.30;99.90;;;;;;4933054;29;20503;-71
2021/12/13 06:00:04;;;;;;;1999.90;999.90;;;10.20;99.90;;;;;;4940723;28;20199;-69
2021/12/13 06:02:51;;;;;;;1999.90;999.90;;;10.20;99.90;;;;;;4932614;29;20410;-71
2021/12/13 06:05:29;;;;;;;1999.90;999.90;;;10.20;99.90;;;;;;4932688;28;20413;-70
2021/12/13 06:07:59;;;;;;;1999.90;999.90;;;10.20;99.90;;;;;;4932722;29;20403;-70
2021/12/13 06:10:46;;;;;;;1999.90;999.90;;;10.30;99.90;;;;;;4932839;29;20426;-71
2021/12/13 06:13:37;;;;;;;1999.90;999.90;;;10.40;99.90;;;;;;4932584;29;20459;-69
2021/12/13 06:16:04;;;;;;;1999.90;999.90;;;10.40;99.90;;;;;;4961673;28;20417;-70
2021/12/13 06:18:42;;;;;;;1999.90;999.90;;;10.40;99.90;;;;;;4932744;29;20453;-69
2021/12/13 06:21:31;;;;;;;1999.90;999.90;;;10.40;99.90;;;;;;4932831;29;20428;-69
2021/12/13 06:23:56;;;;;;;1999.90;999.90;;;10.40;99.90;;;;;;4932629;29;20409;-69
2021/12/13 06:26:29;;;;;;;1999.90;999.90;;;10.40;99.90;;;;;;4932323;29;20467;-69
2021/12/13 06:28:58;;;;;;;1999.90;999.90;;;10.50;99.90;;;;;;4932118;29;20769;-70
2021/12/13 06:31:33;;;;;;;1999.90;999.90;;;10.50;99.90;;;;;;4931666;29;20441;-70
2021/12/13 06:34:03;;;;;;;1999.90;999.90;;;10.50;99.90;;;;;;4931450;29;20459;-70
2021/12/13 06:36:41;;;;;;;1999.90;999.90;;;10.50;99.90;;;;;;4931659;28;20406;-70
2021/12/13 06:39:13;;;;;;;1999.90;999.90;;;10.50;99.90;;;;;;4931665;29;20421;-70
2021/12/13 06:41:45;;;;;;;1999.90;999.90;;;10.50;99.90;;;;;;4931403;29;20427;-70
2021/12/13 06:44:29;;;;;;;1999.90;999.90;;;10.50;99.90;;;;;;4931293;29;20425;-70
2021/12/13 06:47:09;;;;;;;1999.90;999.90;;;10.50;99.90;;;;;;4931611;28;20409;-70
2021/12/13 06:49:45;;;;;;;1999.90;999.90;;;10.50;99.90;;;;;;4931492;29;20790;-70
2021/12/13 06:52:11;;;;;;;1999.90;999.90;;;10.40;99.90;;;;;;4931407;29;20841;-70
2021/12/13 06:54:39;;;;;;;1999.90;999.90;;;10.50;99.90;;;;;;4931902;29;20462;-69
2021/12/13 06:57:10;;;;;;;1999.90;999.90;;;10.40;99.90;;;;;;4932104;29;20167;-69
2021/12/13 06:59:45;;;;;;;1999.90;999.90;;;10.40;99.90;;;;;;4932279;28;20459;-70
2021/12/13 07:02:18;;;;;;;1999.90;999.90;;;10.40;99.90;;;;;;4931799;28;20404;-69
2021/12/13 07:05:03;;;;;;;1999.90;999.90;;;10.50;99.90;;;;;;4932123;29;20788;-70
2021/12/13 07:07:34;;;;;;;1999.90;999.90;;;10.50;99.90;;;;;;4932082;29;20414;-70
2021/12/13 07:10:04;;;;;;;1999.90;999.90;;;10.50;99.90;;;;;;4932073;28;20406;-69
2021/12/13 07:12:31;;;;;;;1999.90;999.90;;;10.50;99.90;;;;;;4932262;29;20474;-70
2021/12/13 07:14:58;;;;;;;1999.90;999.90;;;10.50;99.90;;;;;;4934805;28;20466;-69
2021/12/13 07:17:33;;;;;;;1999.90;999.90;;;10.60;99.90;;;;;;4934928;29;20776;-71
2021/12/13 07:20:10;;;;;;;1999.90;999.90;;;10.50;99.90;;;;;;4934436;28;20399;-71
2021/12/13 07:22:37;;;;;;;1999.90;999.90;;;10.60;99.90;;;;;;4934436;29;20968;-70
2021/12/13 07:25:11;;;;;;;1999.90;999.90;;;10.50;99.90;;;;;;4933985;28;20809;-70
2021/12/13 07:27:48;;;;;;;1999.90;999.90;;;10.50;99.90;;;;;;4934419;28;20410;-70
2021/12/13 07:30:24;;;;;;;1999.90;999.90;;;10.50;99.90;;;;;;4934164;29;20441;-70
2021/12/13 07:32:59;;;;;;;1999.90;999.90;;;10.50;99.90;;;;;;4934165;29;20471;-70
2021/12/13 07:35:30;;;;;;;1999.90;999.90;;;10.40;99.90;;;;;;4933919;29;20420;-70
2021/12/13 07:38:00;;;;;;;1999.90;999.90;;;10.40;99.90;;;;;;4934124;29;20400;-70
2021/12/13 07:40:31;;;;;;;1999.90;999.90;;;10.40;99.90;;;;;;4934024;29;20482;-70
2021/12/13 07:43:18;;;;;;;1999.90;999.90;;;10.40;99.90;;;;;;4934141;28;20405;-70
2021/12/13 07:45:59;;;;;;;1999.90;999.90;;;10.40;99.90;;;;;;4933652;29;20406;-70
2021/12/13 07:48:50;;;;;;;1999.90;999.90;;;10.40;99.90;;;;;;4934036;29;20402;-70
2021/12/13 07:51:15;;;;;;;1999.90;999.90;;;10.40;99.90;;;;;;4934541;29;20445;-71
2021/12/13 07:53:50;;;;;;;1999.90;999.90;;;10.40;99.90;;;;;;4949585;28;20824;-69
2021/12/13 07:56:37;;;;;;;1999.90;999.90;;;10.30;99.90;;;;;;4934103;29;20176;-69
2021/12/13 07:59:22;;;;;;;1999.90;999.90;;;10.40;99.90;;;;;;4934139;29;20513;-71
2021/12/13 08:02:05;;;;;;;1999.90;999.90;;;10.30;99.90;;;;;;4933986;29;20509;-70
2021/12/13 08:04:35;;;;;;;1999.90;999.90;;;10.40;99.90;;;;;;4933943;29;20918;-69
2021/12/13 08:07:12;;;;;;;1999.90;999.90;;;10.40;99.90;;;;;;4933912;29;20768;-70
2021/12/13 08:09:53;;;;;;;1999.90;999.90;;;10.40;99.90;;;;;;4933966;29;20417;-70
2021/12/13 08:12:44;;;;;;;1999.90;999.90;;;10.40;99.90;;;;;;4933949;28;20405;-69
2021/12/13 08:15:26;;;;;;;1999.90;999.90;;;10.40;99.90;;;;;;4933468;29;20912;-69
2021/12/13 08:18:05;;;;;;;1999.90;999.90;;;10.50;99.90;;;;;;4933522;29;20402;-71
2021/12/13 08:20:42;;;;;;;1999.90;999.90;;;10.40;99.90;;;;;;4933521;29;20429;-71
2021/12/13 08:23:36;;;;;;;1999.90;999.90;;;10.50;99.90;;;;;;4933468;29;20442;-71
2021/12/13 08:26:04;;;;;;;1999.90;999.90;;;10.50;99.90;;;;;;4933046;29;20508;-71
2021/12/13 08:28:36;;;;;;;1999.90;999.90;;;10.50;99.90;;;;;;4933373;29;20421;-71
2021/12/13 08:31:05;;;;;;;1999.90;999.90;;;10.50;99.90;;;;;;4933278;29;20890;-71
2021/12/13 08:33:45;;;;;;;1999.90;999.90;;;10.60;99.90;;;;;;4933259;29;20465;-71
2021/12/13 08:36:15;;;;;;;1999.90;999.90;;;10.60;99.90;;;;;;4933044;29;20417;-71
2021/12/13 08:39:02;;;;;;;1999.90;999.90;;;10.60;99.90;;;;;;4933334;28;20409;-71
2021/12/13 08:41:38;;;;;;;1999.90;999.90;;;10.60;99.90;;;;;;4933178;28;20493;-71
2021/12/13 08:44:09;;;;;;;1999.90;999.90;;;10.50;99.90;;;;;;4932800;29;20421;-71
2021/12/13 08:47:10;;;;;;;1999.90;999.90;;;10.50;99.90;;;;;;4933339;28;20802;-71
2021/12/13 08:49:38;;;;;;;1999.90;999.90;;;10.50;99.90;;;;;;4943140;28;20897;-71
2021/12/13 08:52:15;;;;;;;1999.90;999.90;;;10.50;99.90;;;;;;4932661;28;20455;-70
2021/12/13 08:55:10;;;;;;;1999.90;999.90;;;10.50;99.90;;;;;;4932599;29;20453;-70
2021/12/13 08:57:45;;;;;;;1999.90;999.90;;;10.50;99.90;;;;;;4933031;29;20427;-70
2021/12/13 09:00:13;;;;;;;1999.90;999.90;;;10.50;99.90;;;;;;4932767;29;20930;-71
2021/12/13 09:03:09;;;;;;;1999.90;999.90;;;10.50;99.90;;;;;;4932935;29;20480;-71
2021/12/13 09:05:58;;;;;;;1999.90;999.90;;;10.60;99.90;;;;;;4932620;29;20415;-71
2021/12/13 09:08:28;;;;;;;1999.90;999.90;;;10.50;99.90;;;;;;4932879;29;20440;-71
2021/12/13 09:11:24;;;;;;;1999.90;999.90;;;10.50;99.90;;;;;;4932722;29;21005;-71
2021/12/13 09:13:59;;;;;;;1999.90;999.90;;;10.50;99.90;;;;;;4934478;28;20527;-71
2021/12/13 09:16:38;;;;;;;1999.90;999.90;;;10.50;99.90;;;;;;4933598;29;20411;-71
2021/12/13 09:19:18;;;;;;;1999.90;999.90;;;10.50;99.90;;;;;;4932902;29;20417;-71
2021/12/13 09:22:01;;;;;;;1999.90;999.90;;;10.40;99.90;;;;;;4932925;28;20430;-69
2021/12/13 09:24:43;;;;;;;1999.90;999.90;;;10.50;99.90;;;;;;4941851;29;20966;-67
2021/12/13 09:27:26;;;;;;;1999.90;999.90;;;10.50;99.90;;;;;;4940367;29;20822;-71
2021/12/13 09:30:24;;;;;;;1999.90;999.90;;;10.60;99.90;;;;;;4935268;29;20410;-70
2021/12/13 09:32:58;;;;;;;1999.90;999.90;;;10.50;99.90;;;;;;4931922;28;20425;-70
2021/12/13 09:35:32;;;;;;;1999.90;999.90;;;10.50;99.90;;;;;;4944171;28;20486;-69
2021/12/13 09:38:04;;;;;;;1999.90;999.90;;;10.50;99.90;;;;;;4946356;28;20421;-70
2021/12/13 09:40:39;;;;;;;1999.90;999.90;;;10.60;99.90;;;;;;4956074;23;20504;-70
2021/12/13 09:43:07;;;;;;;1999.90;999.90;;;10.50;99.90;;;;;;4961252;28;20484;-70
2021/12/13 09:45:38;;;;;;;1999.90;999.90;;;10.50;99.90;;;;;;4954079;28;20442;-70
2021/12/13 09:48:25;;;;;;;1999.90;999.90;;;10.50;99.90;;;;;;4970299;28;20404;-69
2021/12/13 09:50:57;;;;;;;1999.90;999.90;;;10.50;99.90;;;;;;4964927;28;20432;-69
2021/12/13 09:53:31;;;;;;;1999.90;999.90;;;10.50;99.90;;;;;;4965260;28;20953;-69
2021/12/13 09:56:00;;;;;;;1999.90;999.90;;;10.60;99.90;;;;;;4959394;28;20421;-68
2021/12/13 09:58:48;;;;;;;1999.90;999.90;;;10.60;99.90;;;;;;4951512;29;20777;-69
2021/12/13 10:01:25;;;;;;;1999.90;999.90;;;10.60;99.90;;;;;;4950982;28;20429;-69
2021/12/13 10:04:03;;;;;;;1999.90;999.90;;;10.60;99.90;;;;;;4951634;28;20396;-68
2021/12/13 10:06:42;;;;;;;1999.90;999.90;;;10.70;99.90;;;;;;4951298;29;20420;-68
2021/12/13 10:09:16;;;;;;;1999.90;999.90;;;10.70;99.90;;;;;;4961264;28;20432;-68
2021/12/13 10:12:09;;;;;;;1999.90;999.90;;;10.80;99.90;;;;;;4961840;28;20844;-69
2021/12/13 10:14:40;;;;;;;1999.90;999.90;;;11.00;99.90;;;;;;4969794;28;20810;-68
2021/12/13 10:17:08;;;;;;;1999.90;999.90;;;11.10;99.90;;;;;;4969926;28;20385;-68
2021/12/13 10:19:39;;;;;;;1999.90;999.90;;;11.30;99.90;;;;;;4970545;28;20551;-68
2021/12/13 10:22:08;;;;;;;1999.90;999.90;;;11.50;99.90;;;;;;4970308;28;20421;-69
2021/12/13 10:24:45;;;;;;;1999.90;999.90;;;11.80;99.90;;;;;;4968970;28;20433;-68
2021/12/13 10:27:13;;;;;;;1999.90;999.90;;;12.00;99.90;;;;;;4970206;28;20435;-69
2021/12/13 10:29:42;;;;;;;1999.90;999.90;;;12.20;99.90;;;;;;4970068;28;20965;-69
2021/12/13 10:32:12;;;;;;;1999.90;999.90;;;12.30;99.90;;;;;;4969632;28;20437;-69
2021/12/13 10:34:43;;;;;;;1999.90;999.90;;;12.30;99.90;;;;;;4969919;28;20542;-69
2021/12/13 10:37:20;;;;;;;1999.90;999.90;;;12.30;99.90;;;;;;4970277;28;20386;-68
2021/12/13 10:39:52;;;;;;;1999.90;999.90;;;12.40;99.90;;;;;;4969570;28;20386;-68
2021/12/13 10:42:32;;;;;;;1999.90;999.90;;;12.40;99.90;;;;;;4963896;28;20773;-68
2021/12/13 10:44:59;;;;;;;1999.90;999.90;;;12.40;99.90;;;;;;4966301;28;20984;-69
2021/12/13 10:47:32;;;;;;;1999.90;999.90;;;12.40;99.90;;;;;;4964338;28;20845;-68
2021/12/13 10:49:59;;;;;;;1999.90;999.90;;;12.40;99.90;;;;;;4973168;28;20385;-70
2021/12/13 10:52:29;;;;;;;1999.90;999.90;;;12.40;99.90;;;;;;4972826;28;20419;-68
2021/12/13 10:55:00;;;;;;;1999.90;999.90;;;12.40;99.90;;;;;;4972564;28;20449;-69
2021/12/13 10:57:31;;;;;;;1999.90;999.90;;;12.40;99.90;;;;;;4973221;28;20394;-69
2021/12/13 10:59:59;;;;;;;1999.90;999.90;;;12.30;99.90;;;;;;4973176;28;20902;-68
2021/12/13 11:02:31;;;;;;;1999.90;999.90;;;12.30;99.90;;;;;;4972705;28;20420;-68
2021/12/13 11:05:09;;;;;;;1999.90;999.90;;;12.30;99.90;;;;;;4972969;28;20534;-69
2021/12/13 11:07:35;;;;;;;1999.90;999.90;;;12.30;99.90;;;;;;4973308;28;20432;-68
2021/12/13 11:10:01;;;;;;;1999.90;999.90;;;12.20;99.90;;;;;;4972734;28;20441;-69
2021/12/13 11:12:35;;;;;;;1999.90;999.90;;;12.10;99.90;;;;;;4972848;28;20193;-68
2021/12/13 11:15:06;;;;;;;1999.90;999.90;;;12.10;99.90;;;;;;4972731;28;20457;-69
2021/12/13 11:17:34;;;;;;;1999.90;999.90;;;11.90;99.90;;;;;;4972605;28;20452;-68
2021/12/13 11:20:11;;;;;;;1999.90;999.90;;;11.80;99.90;;;;;;4972698;28;20405;-68
2021/12/13 11:22:37;;;;;;;1999.90;999.90;;;11.80;99.90;;;;;;4972977;28;20405;-69
2021/12/13 11:25:18;;;;;;;1999.90;999.90;;;11.80;99.90;;;;;;4972174;28;20854;-68
2021/12/13 11:27:45;;;;;;;1999.90;999.90;;;11.70;99.90;;;;;;4972825;28;20452;-70
2021/12/13 11:30:16;;;;;;;1999.90;999.90;;;11.70;99.90;;;;;;4972680;28;20796;-69
2021/12/13 11:33:37;;;;;;;1999.90;999.90;;;11.60;99.90;;;;;;4972661;28;20405;-69
2021/12/13 11:36:09;;;;;;;1999.90;999.90;;;11.60;99.90;;;;;;4950389;28;20922;-70
2021/12/13 11:38:52;;;;;;;1999.90;999.90;;;11.50;99.90;;;;;;4971955;28;20404;-70
2021/12/13 11:41:51;;;;;;;1999.90;999.90;;;11.40;99.90;;;;;;4972207;28;20817;-68
2021/12/13 11:44:31;;;;;;;1999.90;999.90;;;11.20;99.90;;;;;;4972243;28;20404;-70
2021/12/13 11:47:50;;;;;;;1999.90;999.90;;;11.20;99.90;;;;;;4971980;28;20981;-69
2021/12/13 11:50:43;;;;;;;1999.90;999.90;;;11.10;99.90;;;;;;4962984;28;20439;-68
2021/12/13 11:53:35;;;;;;;1999.90;999.90;;;11.10;99.90;;;;;;4965343;28;20422;-68
2021/12/13 11:56:48;;;;;;;1999.90;999.90;;;11.00;99.90;;;;;;4971266;28;20967;-68
2021/12/13 11:59:58;;;;;;;1999.90;999.90;;;11.00;99.90;;;;;;4969957;28;20964;-69
2021/12/13 12:02:34;;;;;;;1999.90;999.90;;;11.00;99.90;;;;;;4972385;28;20480;-69
2021/12/13 12:05:31;;;;;;;1999.90;999.90;;;11.00;99.90;;;;;;4972289;28;20382;-68
2021/12/13 12:08:40;;;;;;;1999.90;999.90;;;11.10;99.90;;;;;;4971901;28;20401;-69
2021/12/13 12:11:43;;;;;;;1999.90;999.90;;;11.20;99.90;;;;;;4971343;28;20559;-69
2021/12/13 12:14:12;;;;;;;1999.90;999.90;;;11.20;99.90;;;;;;4971595;28;20452;-68
2021/12/13 12:16:44;;;;;;;1999.90;999.90;;;11.20;99.90;;;;;;4971545;28;20405;-69
2021/12/13 12:19:16;;;;;;;1999.90;999.90;;;11.30;99.90;;;;;;4972181;28;20427;-68
2021/12/13 12:21:53;;;;;;;1999.90;999.90;;;11.30;99.90;;;;;;4972020;28;20980;-68
2021/12/13 12:24:21;;;;;;;1999.90;999.90;;;11.30;99.90;;;;;;4971207;28;20448;-69
2021/12/13 12:26:51;;;;;;;1999.90;999.90;;;11.40;99.90;;;;;;4972119;28;20419;-69
2021/12/13 12:29:28;;;;;;;1999.90;999.90;;;11.50;99.90;;;;;;4971945;28;20763;-68
2021/12/13 12:32:14;;;;;;;1999.90;999.90;;;11.60;99.90;;;;;;4971520;28;20466;-69
2021/12/13 12:35:02;;;;;;;1999.90;999.90;;;11.60;99.90;;;;;;4971297;28;20455;-69
2021/12/13 12:37:30;;;;;;;1999.90;999.90;;;11.50;99.90;;;;;;4971265;28;20986;-70
2021/12/13 12:40:08;;;;;;;1999.90;999.90;;;11.50;99.90;;;;;;4971507;28;20478;-68
2021/12/13 12:42:39;;;;;;;1999.90;999.90;;;11.50;99.90;;;;;;4971672;28;20401;-69
2021/12/13 12:45:14;;;;;;;1999.90;999.90;;;11.50;99.90;;;;;;4970870;28;20394;-69
2021/12/13 12:47:57;;;;;;;1999.90;999.90;;;11.40;99.90;;;;;;4971678;28;20813;-68